createdAt,value
2022-10-22T00:01:49.355Z,16.19
2022-10-22T00:04:19.342Z,16.22
2022-10-22T00:06:52.070Z,16.24
2022-10-22T00:09:31.705Z,16.25
2022-10-22T00:12:06.402Z,16.26
2022-10-22T00:14:40.742Z,16.26
2022-10-22T00:17:39.713Z,16.29
2022-10-22T00:20:15.302Z,16.29
2022-10-22T00:25:49.530Z,16.32
2022-10-22T00:28:54.620Z,16.31
2022-10-22T00:31:33.602Z,16.29
2022-10-22T00:34:15.082Z,16.25
2022-10-22T00:36:56.813Z,16.25
2022-10-22T00:39:36.762Z,16.30
2022-10-22T00:42:29.177Z,16.29
2022-10-22T00:45:16.871Z,16.27
2022-10-22T00:48:16.316Z,16.30
2022-10-22T00:51:10.086Z,16.26
2022-10-22T00:53:41.678Z,16.27
2022-10-22T00:56:10.331Z,16.26
2022-10-22T00:59:12.777Z,16.24
2022-10-22T01:01:53.768Z,16.22
2022-10-22T01:04:31.819Z,16.21
2022-10-22T01:07:06.139Z,16.21
2022-10-22T01:10:32.132Z,16.19
2022-10-22T01:13:31.596Z,16.14
2022-10-22T01:16:41.928Z,16.13
2022-10-22T01:19:34.897Z,16.13
2022-10-22T01:22:26.077Z,16.12
2022-10-22T01:26:33.712Z,16.11
2022-10-22T01:30:00.253Z,16.10
2022-10-22T01:33:12.409Z,16.06
2022-10-22T01:35:51.888Z,16.06
2022-10-22T01:38:31.172Z,16.06
2022-10-22T01:41:12.424Z,16.08
2022-10-22T01:44:03.047Z,16.11
2022-10-22T01:46:51.886Z,16.08
2022-10-22T01:49:55.303Z,16.07
2022-10-22T01:53:22.543Z,16.09
2022-10-22T01:56:06.539Z,16.10
2022-10-22T01:58:45.802Z,16.10
2022-10-22T02:01:41.410Z,16.07
2022-10-22T02:04:56.535Z,16.08
2022-10-22T02:07:32.833Z,16.07
2022-10-22T02:10:02.546Z,16.10
2022-10-22T02:12:31.654Z,16.12
2022-10-22T02:15:00.919Z,16.12
2022-10-22T02:17:31.808Z,16.11
2022-10-22T02:20:10.267Z,16.11
2022-10-22T02:22:38.217Z,16.13
2022-10-22T02:25:07.682Z,16.15
2022-10-22T02:27:47.477Z,16.17
2022-10-22T02:30:20.138Z,16.18
2022-10-22T02:33:11.755Z,16.18
2022-10-22T02:35:41.954Z,16.18
2022-10-22T02:38:11.598Z,16.17
2022-10-22T02:40:39.537Z,16.17
2022-10-22T02:43:07.389Z,16.17
2022-10-22T02:45:35.748Z,16.17
2022-10-22T02:48:03.820Z,16.18
2022-10-22T02:50:31.880Z,16.18
2022-10-22T02:52:59.369Z,16.18
2022-10-22T02:55:27.091Z,16.20
2022-10-22T02:57:54.492Z,16.20
2022-10-22T03:00:22.652Z,16.22
2022-10-22T03:02:50.462Z,16.23
2022-10-22T03:05:18.283Z,16.25
2022-10-22T03:07:45.889Z,16.26
2022-10-22T03:10:13.584Z,16.26
2022-10-22T03:12:41.098Z,16.24
2022-10-22T03:15:09.460Z,16.22
2022-10-22T03:17:37.057Z,16.18
2022-10-22T03:20:06.027Z,16.16
2022-10-22T03:22:34.763Z,16.15
2022-10-22T03:25:08.216Z,16.12
2022-10-22T03:27:39.184Z,16.11
2022-10-22T03:30:10.278Z,16.08
2022-10-22T03:32:37.790Z,16.08
2022-10-22T03:35:07.439Z,16.06
2022-10-22T03:37:36.133Z,16.04
2022-10-22T03:40:06.730Z,15.95
2022-10-22T03:42:34.536Z,15.87
2022-10-22T03:45:02.326Z,15.82
2022-10-22T03:47:29.763Z,15.80
2022-10-22T03:49:57.622Z,15.80
2022-10-22T03:52:25.094Z,15.81
2022-10-22T03:54:52.869Z,15.79
2022-10-22T03:57:20.471Z,15.78
2022-10-22T03:59:48.332Z,15.77
2022-10-22T04:02:15.869Z,15.78
2022-10-22T04:04:43.706Z,15.78
2022-10-22T04:07:11.173Z,15.81
2022-10-22T04:09:39.009Z,15.85
2022-10-22T04:12:08.040Z,15.88
2022-10-22T04:14:35.873Z,15.96
2022-10-22T04:17:03.384Z,16.03
2022-10-22T04:19:31.125Z,16.12
2022-10-22T04:21:59.951Z,16.19
2022-10-22T04:24:27.948Z,16.25
2022-10-22T04:26:56.206Z,16.27
2022-10-22T04:29:24.497Z,16.26
2022-10-22T04:31:52.297Z,16.26
2022-10-22T04:34:20.053Z,16.26
2022-10-22T04:36:47.869Z,16.25
2022-10-22T04:39:15.791Z,16.25
2022-10-22T04:41:43.338Z,16.24
2022-10-22T04:44:13.791Z,16.25
2022-10-22T04:46:44.893Z,16.25
2022-10-22T04:49:12.685Z,16.25
2022-10-22T04:51:40.516Z,16.24
2022-10-22T04:54:08.458Z,16.23
2022-10-22T04:56:35.963Z,16.24
2022-10-22T04:59:09.229Z,16.21
2022-10-22T05:01:43.647Z,16.22
2022-10-22T05:04:17.313Z,16.22
2022-10-22T05:06:45.447Z,16.23
2022-10-22T05:09:20.875Z,16.22
2022-10-22T05:11:51.452Z,16.22
2022-10-22T05:14:25.072Z,16.23
2022-10-22T05:16:53.434Z,16.28
2022-10-22T05:19:29.392Z,16.29
2022-10-22T05:22:02.067Z,16.24
2022-10-22T05:24:31.628Z,16.19
2022-10-22T05:27:00.509Z,16.13
2022-10-22T05:29:28.580Z,16.03
2022-10-22T05:31:56.153Z,15.96
2022-10-22T05:34:23.938Z,15.92
2022-10-22T05:36:51.514Z,15.93
2022-10-22T05:39:19.236Z,15.91
2022-10-22T05:41:46.782Z,15.92
2022-10-22T05:44:14.635Z,15.90
2022-10-22T05:46:43.492Z,15.90
2022-10-22T05:49:14.547Z,15.88
2022-10-22T05:51:42.369Z,15.84
2022-10-22T05:54:18.943Z,15.81
2022-10-22T05:56:47.162Z,15.82
2022-10-22T05:59:15.192Z,15.79
2022-10-22T06:01:43.742Z,15.81
2022-10-22T06:04:13.148Z,15.83
2022-10-22T06:06:49.114Z,15.86
2022-10-22T06:09:42.399Z,15.89
2022-10-22T06:12:12.309Z,15.92
2022-10-22T06:14:40.225Z,15.95
2022-10-22T06:17:08.082Z,15.98
2022-10-22T06:19:36.762Z,16.02
2022-10-22T06:22:05.410Z,16.07
2022-10-22T06:24:33.188Z,16.11
2022-10-22T06:27:00.721Z,16.17
2022-10-22T06:29:28.583Z,16.21
2022-10-22T06:31:56.013Z,16.26
2022-10-22T06:34:23.893Z,16.34
2022-10-22T06:36:51.724Z,16.40
2022-10-22T06:39:19.385Z,16.47
2022-10-22T06:41:47.020Z,16.54
2022-10-22T06:44:21.418Z,16.60
2022-10-22T06:46:53.060Z,16.66
2022-10-22T06:49:21.890Z,16.72
2022-10-22T06:51:54.583Z,16.77
2022-10-22T06:54:23.480Z,16.80
2022-10-22T06:56:51.036Z,16.85
2022-10-22T06:59:18.642Z,16.92
2022-10-22T07:01:46.374Z,16.98
2022-10-22T07:04:14.126Z,17.08
2022-10-22T07:06:41.717Z,17.13
2022-10-22T07:09:09.606Z,17.20
2022-10-22T07:11:45.648Z,17.28
2022-10-22T07:14:14.803Z,17.36
2022-10-22T07:16:43.222Z,17.44
2022-10-22T07:19:11.316Z,17.51
2022-10-22T07:21:39.268Z,17.57
2022-10-22T07:24:07.383Z,17.64
2022-10-22T07:26:34.833Z,17.70
2022-10-22T07:29:04.508Z,17.76
2022-10-22T07:31:32.245Z,17.82
2022-10-22T07:33:59.897Z,17.87
2022-10-22T07:36:27.359Z,17.93
2022-10-22T07:38:58.387Z,17.99
2022-10-22T07:41:28.348Z,18.03
2022-10-22T07:43:57.677Z,18.08
2022-10-22T07:46:26.098Z,18.13
2022-10-22T07:48:54.134Z,18.19
2022-10-22T07:51:21.772Z,18.24
2022-10-22T07:53:49.626Z,18.32
2022-10-22T07:56:17.528Z,18.40
2022-10-22T07:58:45.129Z,18.46
2022-10-22T08:01:12.661Z,18.53
2022-10-22T08:03:40.438Z,18.61
2022-10-22T08:06:09.317Z,18.70
2022-10-22T08:08:37.121Z,18.80
2022-10-22T08:11:04.884Z,18.88
2022-10-22T08:13:32.908Z,18.94
2022-10-22T08:16:01.476Z,19.02
2022-10-22T08:18:29.756Z,19.10
2022-10-22T08:20:58.835Z,19.17
2022-10-22T08:23:28.757Z,19.25
2022-10-22T08:25:57.587Z,19.34
2022-10-22T08:28:28.542Z,19.42
2022-10-22T08:30:56.774Z,19.53
2022-10-22T08:33:24.815Z,19.62
2022-10-22T08:35:52.864Z,19.70
2022-10-22T08:38:20.936Z,19.75
2022-10-22T08:40:54.352Z,19.83
2022-10-22T08:44:15.759Z,19.88
2022-10-22T08:47:38.389Z,19.90
2022-10-22T08:50:12.331Z,19.92
2022-10-22T08:52:45.459Z,19.94
2022-10-22T08:55:16.186Z,19.94
2022-10-22T08:58:20.307Z,19.97
2022-10-22T09:01:04.078Z,20.02
2022-10-22T09:03:57.975Z,20.10
2022-10-22T09:06:30.374Z,20.17
2022-10-22T09:09:00.569Z,20.27
2022-10-22T09:11:37.722Z,20.32
2022-10-22T09:14:06.377Z,20.35
2022-10-22T09:16:43.211Z,20.38
2022-10-22T09:20:08.471Z,20.41
2022-10-22T09:23:20.201Z,20.43
2022-10-22T09:25:49.276Z,20.49
2022-10-22T09:28:17.163Z,20.53
2022-10-22T09:30:45.838Z,20.63
2022-10-22T09:33:27.626Z,20.69
2022-10-22T09:36:04.577Z,20.75
2022-10-22T09:38:45.203Z,20.84
2022-10-22T09:41:13.311Z,20.92
2022-10-22T09:43:41.030Z,20.96
2022-10-22T09:46:27.609Z,21.01
2022-10-22T09:49:12.243Z,21.08
2022-10-22T09:52:00.679Z,21.19
2022-10-22T09:54:34.553Z,21.30
2022-10-22T09:57:13.388Z,21.40
2022-10-22T09:59:43.064Z,21.47
2022-10-22T10:02:43.996Z,21.52
2022-10-22T10:05:25.111Z,21.56
2022-10-22T10:07:52.697Z,21.58
2022-10-22T10:10:53.911Z,21.60
2022-10-22T10:13:21.440Z,21.58
2022-10-22T10:16:23.842Z,21.57
2022-10-22T10:19:38.160Z,21.53
2022-10-22T10:22:30.423Z,21.48
2022-10-22T10:25:21.904Z,21.44
2022-10-22T10:28:19.388Z,21.39
2022-10-22T10:31:26.732Z,21.35
2022-10-22T10:34:08.094Z,21.30
2022-10-22T10:36:52.277Z,21.27
2022-10-22T10:39:51.407Z,21.28
2022-10-22T10:42:34.190Z,21.29
2022-10-22T10:45:36.642Z,21.29
2022-10-22T10:48:34.037Z,21.29
2022-10-22T10:51:47.013Z,21.29
2022-10-22T10:54:46.038Z,21.28
2022-10-22T10:57:39.560Z,21.28
2022-10-22T11:00:20.080Z,21.29
2022-10-22T11:03:06.116Z,21.28
2022-10-22T11:05:58.046Z,21.28
2022-10-22T11:08:45.969Z,21.29
2022-10-22T11:11:26.518Z,21.30
2022-10-22T11:14:26.522Z,21.34
2022-10-22T11:17:04.769Z,21.37
2022-10-22T11:19:55.641Z,21.42
2022-10-22T11:23:13.175Z,21.48
2022-10-22T11:25:44.755Z,21.55
2022-10-22T11:28:21.208Z,21.60
2022-10-22T11:31:02.393Z,21.65
2022-10-22T11:34:21.729Z,21.73
2022-10-22T11:36:57.504Z,21.75
2022-10-22T11:39:46.280Z,21.79
2022-10-22T11:42:34.420Z,21.81
2022-10-22T11:45:28.738Z,21.83
2022-10-22T11:48:15.549Z,21.94
2022-10-22T11:50:55.140Z,22.06
2022-10-22T11:53:39.217Z,22.15
2022-10-22T11:56:06.829Z,22.25
2022-10-22T11:58:47.647Z,22.36
2022-10-22T12:01:28.717Z,22.47
2022-10-22T12:03:59.498Z,22.52
2022-10-22T12:06:28.632Z,22.57
2022-10-22T12:09:04.906Z,22.62
2022-10-22T12:11:50.274Z,22.67
2022-10-22T12:14:34.184Z,22.70
2022-10-22T12:17:18.077Z,22.71
2022-10-22T12:19:49.571Z,22.72
2022-10-22T12:22:43.969Z,22.71
2022-10-22T12:25:24.681Z,22.70
2022-10-22T12:27:57.273Z,22.67
2022-10-22T12:30:37.204Z,22.68
2022-10-22T12:33:08.341Z,22.68
2022-10-22T12:35:45.560Z,22.67
2022-10-22T12:38:16.662Z,22.67
2022-10-22T12:40:48.391Z,22.73
2022-10-22T12:43:30.988Z,22.89
2022-10-22T12:45:59.846Z,23.07
2022-10-22T12:48:40.243Z,23.28
2022-10-22T12:51:14.073Z,23.42
2022-10-22T12:54:01.855Z,23.51
2022-10-22T12:56:34.129Z,23.52
2022-10-22T12:59:29.432Z,23.59
2022-10-22T13:01:57.827Z,23.59
2022-10-22T13:04:36.477Z,23.60
2022-10-22T13:07:19.964Z,23.66
2022-10-22T13:10:01.901Z,23.67
2022-10-22T13:12:36.808Z,23.68
2022-10-22T13:15:35.690Z,23.66
2022-10-22T13:18:25.289Z,23.61
2022-10-22T13:21:05.935Z,23.55
2022-10-22T13:23:34.607Z,23.50
2022-10-22T13:26:16.892Z,23.43
2022-10-22T13:28:56.050Z,23.37
2022-10-22T13:31:33.556Z,23.32
2022-10-22T13:34:11.826Z,23.28
2022-10-22T13:36:41.541Z,23.27
2022-10-22T13:39:20.907Z,23.31
2022-10-22T13:41:52.015Z,23.34
2022-10-22T13:44:19.965Z,23.34
2022-10-22T13:46:51.071Z,23.34
2022-10-22T13:49:23.442Z,23.36
2022-10-22T13:51:51.707Z,23.34
2022-10-22T13:54:24.285Z,23.34
2022-10-22T13:56:52.765Z,23.33
2022-10-22T13:59:22.970Z,23.31
2022-10-22T14:01:52.278Z,23.29
2022-10-22T14:04:19.989Z,23.30
2022-10-22T14:06:47.534Z,23.34
2022-10-22T14:09:16.397Z,23.36
2022-10-22T14:11:43.933Z,23.46
2022-10-22T14:14:14.301Z,23.72
2022-10-22T14:16:42.204Z,24.00
2022-10-22T14:19:16.709Z,24.24
2022-10-22T14:21:44.598Z,24.40
2022-10-22T14:24:13.392Z,24.60
2022-10-22T14:26:41.206Z,24.72
2022-10-22T14:29:10.622Z,24.77
2022-10-22T14:34:16.611Z,25.14
2022-10-22T14:36:44.575Z,25.35
2022-10-22T14:39:14.066Z,25.47
2022-10-22T14:41:42.556Z,25.46
2022-10-22T14:44:14.667Z,25.42
2022-10-22T14:46:44.368Z,25.30
2022-10-22T14:49:12.769Z,25.12
2022-10-22T14:51:40.695Z,24.93
2022-10-22T14:54:08.461Z,24.73
2022-10-22T14:59:04.939Z,24.26
2022-10-22T15:01:32.435Z,24.02
2022-10-22T15:04:00.284Z,23.84
2022-10-22T15:06:27.723Z,23.67
2022-10-22T15:08:55.864Z,23.48
2022-10-22T15:11:23.431Z,23.32
2022-10-22T15:13:51.907Z,23.15
2022-10-22T15:16:19.481Z,22.98
2022-10-22T15:18:47.209Z,22.84
2022-10-22T15:21:22.093Z,22.69
2022-10-22T15:23:50.395Z,22.53
2022-10-22T15:26:18.683Z,22.37
2022-10-22T15:28:46.410Z,22.23
2022-10-22T15:31:15.040Z,22.13
2022-10-22T15:33:44.058Z,22.01
2022-10-22T15:36:15.353Z,21.91
2022-10-22T15:38:43.361Z,21.80
2022-10-22T15:41:13.417Z,21.69
2022-10-22T15:43:41.365Z,21.59
2022-10-22T15:46:19.329Z,21.47
2022-10-22T15:48:47.151Z,21.36
2022-10-22T15:51:18.520Z,21.26
2022-10-22T15:53:56.539Z,21.15
2022-10-22T15:56:25.740Z,21.07
2022-10-22T15:59:04.947Z,20.99
2022-10-22T16:01:34.255Z,20.90
2022-10-22T16:04:04.886Z,20.79
2022-10-22T16:06:36.461Z,20.70
2022-10-22T16:09:11.368Z,20.63
2022-10-22T16:11:42.877Z,20.55
2022-10-22T16:14:14.907Z,20.49
2022-10-22T16:16:49.397Z,20.46
2022-10-22T16:19:19.522Z,20.44
2022-10-22T16:21:51.184Z,20.41
2022-10-22T16:24:20.787Z,20.39
2022-10-22T16:26:49.164Z,20.38
2022-10-22T16:29:17.033Z,20.37
2022-10-22T16:31:45.543Z,20.36
2022-10-22T16:34:13.444Z,20.34
2022-10-22T16:36:40.944Z,20.32
2022-10-22T16:39:08.887Z,20.31
2022-10-22T16:41:37.066Z,20.28
2022-10-22T16:44:08.056Z,20.27
2022-10-22T16:46:39.565Z,20.25
2022-10-22T16:49:08.107Z,20.22
2022-10-22T16:51:36.251Z,20.20
2022-10-22T16:54:06.866Z,20.19
2022-10-22T16:56:37.627Z,20.17
2022-10-22T16:59:06.415Z,20.16
2022-10-22T17:01:36.875Z,20.17
2022-10-22T17:04:08.211Z,20.16
2022-10-22T17:06:36.750Z,20.15
2022-10-22T17:09:04.986Z,20.12
2022-10-22T17:11:36.350Z,20.08
2022-10-22T17:14:06.877Z,20.01
2022-10-22T17:16:34.346Z,19.92
2022-10-22T17:19:04.116Z,19.84
2022-10-22T17:21:31.747Z,19.78
2022-10-22T17:23:59.700Z,19.72
2022-10-22T17:26:28.333Z,19.70
2022-10-22T17:28:56.127Z,19.68
2022-10-22T17:31:37.440Z,19.64
2022-10-22T17:34:08.869Z,19.61
2022-10-22T17:36:37.767Z,19.58
2022-10-22T17:39:08.892Z,19.55
2022-10-22T17:41:37.798Z,19.53
2022-10-22T17:44:09.342Z,19.49
2022-10-22T17:46:37.794Z,19.45
2022-10-22T17:49:14.936Z,19.40
2022-10-22T17:51:42.570Z,19.37
2022-10-22T17:54:10.750Z,19.32
2022-10-22T17:56:40.379Z,19.28
2022-10-22T17:59:11.875Z,19.21
2022-10-22T18:01:45.234Z,19.15
2022-10-22T18:04:16.996Z,19.11
2022-10-22T18:06:46.801Z,19.10
2022-10-22T18:09:18.589Z,19.09
2022-10-22T18:11:48.350Z,19.09
2022-10-22T18:14:18.930Z,19.07
2022-10-22T18:16:47.872Z,19.04
2022-10-22T18:19:20.037Z,19.01
2022-10-22T18:21:47.539Z,18.98
2022-10-22T18:24:16.791Z,18.97
2022-10-22T18:26:44.453Z,18.96
2022-10-22T18:29:18.021Z,18.96
2022-10-22T18:31:45.914Z,18.95
2022-10-22T18:34:15.810Z,18.96
2022-10-22T18:36:45.285Z,18.95
2022-10-22T18:39:15.522Z,18.95
2022-10-22T18:41:43.889Z,18.94
2022-10-22T18:44:14.569Z,18.94
2022-10-22T18:46:42.892Z,18.95
2022-10-22T18:49:18.468Z,18.98
2022-10-22T18:51:48.855Z,19.01
2022-10-22T18:54:23.056Z,19.09
2022-10-22T18:56:55.521Z,19.16
2022-10-22T18:59:27.493Z,19.20
2022-10-22T19:02:00.064Z,19.22
2022-10-22T19:04:36.616Z,19.22
2022-10-22T19:07:05.583Z,19.21
2022-10-22T19:09:34.261Z,19.20
2022-10-22T19:12:02.970Z,19.17
2022-10-22T19:14:31.601Z,19.16
2022-10-22T19:16:59.123Z,19.12
2022-10-22T19:19:27.442Z,19.08
2022-10-22T19:21:56.647Z,19.09
2022-10-22T19:24:25.104Z,19.05
2022-10-22T19:26:53.116Z,19.03
2022-10-22T19:29:22.459Z,19.00
2022-10-22T19:31:51.208Z,18.94
2022-10-22T19:34:21.574Z,18.89
2022-10-22T19:36:52.149Z,18.82
2022-10-22T19:39:20.584Z,18.80
2022-10-22T19:41:48.649Z,18.75
2022-10-22T19:44:16.612Z,18.76
2022-10-22T19:46:44.205Z,18.75
2022-10-22T19:49:17.662Z,18.77
2022-10-22T19:51:48.031Z,18.74
2022-10-22T19:54:18.634Z,18.77
2022-10-22T19:56:47.782Z,18.80
2022-10-22T19:59:20.481Z,18.74
2022-10-22T20:01:48.196Z,18.74
2022-10-22T20:04:17.809Z,18.71
2022-10-22T20:06:45.630Z,18.70
2022-10-22T20:09:17.135Z,18.67
2022-10-22T20:11:45.072Z,18.62
2022-10-22T20:14:14.523Z,18.54
2022-10-22T20:16:42.862Z,18.48
2022-10-22T20:19:16.066Z,18.48
2022-10-22T20:21:45.741Z,18.44
2022-10-22T20:24:13.624Z,18.38
2022-10-22T20:26:41.255Z,18.30
2022-10-22T20:29:11.584Z,18.25
2022-10-22T20:31:39.251Z,18.17
2022-10-22T20:34:07.346Z,18.14
2022-10-22T20:36:34.890Z,18.10
2022-10-22T20:39:07.647Z,18.01
2022-10-22T20:41:37.974Z,17.99
2022-10-22T20:44:09.943Z,17.96
2022-10-22T20:46:37.547Z,17.90
2022-10-22T20:49:09.465Z,17.87
2022-10-22T20:51:38.116Z,17.88
2022-10-22T20:54:07.572Z,17.78
2022-10-22T20:56:36.824Z,17.76
2022-10-22T20:59:05.686Z,17.72
2022-10-22T21:01:47.546Z,17.71
2022-10-22T21:04:16.745Z,17.72
2022-10-22T21:06:44.312Z,17.73
2022-10-22T21:09:14.326Z,17.73
2022-10-22T21:11:43.666Z,17.72
2022-10-22T21:14:14.777Z,17.74
2022-10-22T21:16:46.111Z,17.73
2022-10-22T21:19:15.096Z,17.73
2022-10-22T21:21:42.770Z,17.72
2022-10-22T21:24:11.207Z,17.74
2022-10-22T21:26:41.207Z,17.73
2022-10-22T21:29:12.259Z,17.67
2022-10-22T21:31:40.578Z,17.63
2022-10-22T21:34:08.643Z,17.60
2022-10-22T21:36:36.274Z,17.56
2022-10-22T21:39:05.207Z,17.53
2022-10-22T21:41:33.563Z,17.48
2022-10-22T21:44:01.393Z,17.50
2022-10-22T21:46:29.870Z,17.33
2022-10-22T21:49:03.356Z,17.29
2022-10-22T21:51:33.875Z,17.27
2022-10-22T21:54:01.919Z,17.28
2022-10-22T21:56:33.086Z,17.28
2022-10-22T21:59:03.479Z,17.24
2022-10-22T22:01:49.405Z,17.20
2022-10-22T22:04:17.265Z,17.13
2022-10-22T22:06:44.800Z,17.12
2022-10-22T22:09:12.722Z,17.12
2022-10-22T22:11:41.431Z,17.08
2022-10-22T22:14:10.481Z,17.01
2022-10-22T22:16:38.153Z,17.01
2022-10-22T22:19:09.788Z,16.99
2022-10-22T22:21:40.306Z,16.94
2022-10-22T22:24:11.603Z,16.94
2022-10-22T22:26:40.175Z,16.95
2022-10-22T22:29:07.965Z,16.94
2022-10-22T22:31:37.354Z,16.87
2022-10-22T22:34:16.676Z,16.87
2022-10-22T22:36:49.367Z,16.89
2022-10-22T22:39:23.144Z,16.88
2022-10-22T22:41:50.944Z,16.91
2022-10-22T22:44:18.769Z,16.85
2022-10-22T22:46:46.381Z,16.82
2022-10-22T22:49:14.435Z,16.85
2022-10-22T22:51:43.517Z,16.89
2022-10-22T22:54:11.766Z,16.89
2022-10-22T22:56:39.389Z,16.91
2022-10-22T22:59:07.427Z,16.92
2022-10-22T23:01:38.555Z,16.88
2022-10-22T23:04:19.047Z,16.80
2022-10-22T23:06:46.857Z,16.70
2022-10-22T23:09:16.301Z,16.73
2022-10-22T23:11:45.155Z,16.61
2022-10-22T23:14:16.886Z,16.49
2022-10-22T23:16:48.764Z,16.41
2022-10-22T23:19:19.918Z,16.42
2022-10-22T23:21:54.389Z,16.40
2022-10-22T23:24:25.994Z,16.40
2022-10-22T23:26:58.263Z,16.41
2022-10-22T23:29:33.564Z,16.44
2022-10-22T23:32:04.753Z,16.49
2022-10-22T23:34:33.018Z,16.49
2022-10-22T23:37:00.601Z,16.48
2022-10-22T23:39:29.608Z,16.44
2022-10-22T23:41:57.733Z,16.37
2022-10-22T23:44:25.946Z,16.17
2022-10-22T23:46:53.589Z,16.05
2022-10-22T23:49:21.373Z,15.94
2022-10-22T23:51:48.880Z,15.80
2022-10-22T23:54:18.595Z,15.71
2022-10-22T23:56:47.109Z,15.67
2022-10-22T23:59:15.395Z,15.64
